createdAt,value
2023-02-04T00:02:40.003Z,58.27
2023-02-04T00:07:41.633Z,58.49
2023-02-04T00:12:42.958Z,58.23
2023-02-04T00:17:44.276Z,57.97
2023-02-04T00:22:45.754Z,57.90
2023-02-04T00:27:47.136Z,57.75
2023-02-04T00:32:48.547Z,57.63
2023-02-04T00:37:50.626Z,57.70
2023-02-04T00:42:52.340Z,57.72
2023-02-04T00:47:53.696Z,57.67
2023-02-04T00:52:55.052Z,57.80
2023-02-04T00:57:56.381Z,57.64
2023-02-04T01:02:57.706Z,57.32
2023-02-04T01:07:59.055Z,57.27
2023-02-04T01:13:00.802Z,57.35
2023-02-04T01:18:02.541Z,57.32
2023-02-04T01:23:03.853Z,57.42
2023-02-04T01:28:05.193Z,57.30
2023-02-04T01:33:06.556Z,56.92
2023-02-04T01:38:07.903Z,56.86
2023-02-04T01:43:10.980Z,56.96
2023-02-04T01:48:14.081Z,56.75
2023-02-04T01:53:20.447Z,56.74
2023-02-04T01:58:21.774Z,56.65
2023-02-04T02:03:23.253Z,56.16
2023-02-04T02:08:24.621Z,55.70
2023-02-04T02:13:25.957Z,55.88
2023-02-04T02:18:27.353Z,56.10
2023-02-04T02:23:48.014Z,55.89
2023-02-04T02:28:50.513Z,55.65
2023-02-04T02:33:52.020Z,55.74
2023-02-04T02:38:53.557Z,55.76
2023-02-04T02:43:54.920Z,56.12
2023-02-04T02:48:56.374Z,56.08
2023-02-04T02:53:58.199Z,56.31
2023-02-04T02:59:13.174Z,55.84
2023-02-04T03:04:16.986Z,56.21
2023-02-04T03:09:19.004Z,56.33
2023-02-04T03:14:22.310Z,56.56
2023-02-04T03:19:25.934Z,56.44
2023-02-04T03:24:27.282Z,57.03
2023-02-04T03:29:29.849Z,56.73
2023-02-04T03:34:31.308Z,56.57
2023-02-04T03:39:32.640Z,56.89
2023-02-04T03:44:34.015Z,57.07
2023-02-04T03:49:36.071Z,56.92
2023-02-04T03:54:37.418Z,56.57
2023-02-04T03:59:39.042Z,56.59
2023-02-04T04:04:40.429Z,57.02
2023-02-04T04:09:41.779Z,56.57
2023-02-04T04:14:43.093Z,56.78
2023-02-04T04:19:46.497Z,56.64
2023-02-04T04:24:47.863Z,56.86
2023-02-04T04:29:49.167Z,57.22
2023-02-04T04:34:50.537Z,57.46
2023-02-04T04:39:51.877Z,58.12
2023-02-04T04:44:53.189Z,58.03
2023-02-04T04:49:54.516Z,58.51
2023-02-04T04:54:55.869Z,58.63
2023-02-04T04:59:57.338Z,58.38
2023-02-04T05:04:58.706Z,58.61
2023-02-04T05:10:00.169Z,57.80
2023-02-04T05:15:01.586Z,58.11
2023-02-04T05:20:03.897Z,58.07
2023-02-04T05:25:05.578Z,58.19
2023-02-04T05:30:07.362Z,58.04
2023-02-04T05:35:08.752Z,58.29
2023-02-04T05:40:10.533Z,57.67
2023-02-04T05:45:15.837Z,57.92
2023-02-04T05:50:17.303Z,58.04
2023-02-04T05:55:18.642Z,58.02
2023-02-04T06:00:20.353Z,58.09
2023-02-04T06:05:23.022Z,58.32
2023-02-04T06:10:24.366Z,58.34
2023-02-04T06:15:25.715Z,58.39
2023-02-04T06:20:27.112Z,58.80
2023-02-04T06:25:28.474Z,59.59
2023-02-04T06:30:30.042Z,59.76
2023-02-04T06:35:31.665Z,60.04
2023-02-04T06:40:33.273Z,59.65
2023-02-04T06:45:35.816Z,60.16
2023-02-04T06:50:37.199Z,60.13
2023-02-04T06:55:38.905Z,60.10
2023-02-04T07:00:40.237Z,60.81
2023-02-04T07:05:41.562Z,60.89
2023-02-04T07:10:42.873Z,61.21
2023-02-04T07:15:44.233Z,61.06
2023-02-04T07:20:46.066Z,60.83
2023-02-04T07:25:47.393Z,61.21
2023-02-04T07:30:48.872Z,60.86
2023-02-04T07:35:50.297Z,60.76
2023-02-04T07:40:51.687Z,61.11
2023-02-04T07:45:53.433Z,61.90
2023-02-04T07:50:54.756Z,61.13
2023-02-04T07:55:56.106Z,61.27
2023-02-04T08:00:57.437Z,61.78
2023-02-04T08:05:58.751Z,62.00
2023-02-04T08:11:00.348Z,61.84
2023-02-04T08:16:01.840Z,62.02
2023-02-04T08:21:04.821Z,61.30
2023-02-04T08:26:06.360Z,61.40
2023-02-04T08:31:11.797Z,61.32
2023-02-04T08:36:13.242Z,61.39
2023-02-04T08:41:14.584Z,61.38
2023-02-04T08:46:16.060Z,61.29
2023-02-04T08:51:17.498Z,61.24
2023-02-04T08:56:20.419Z,61.18
2023-02-04T09:01:21.918Z,60.58
2023-02-04T09:06:23.326Z,60.41
2023-02-04T09:11:24.686Z,60.34
2023-02-04T09:16:26.045Z,59.71
2023-02-04T09:21:27.686Z,59.55
2023-02-04T09:26:29.036Z,59.21
2023-02-04T09:31:30.658Z,58.92
2023-02-04T09:36:37.693Z,58.47
2023-02-04T09:41:40.532Z,58.30
2023-02-04T09:46:46.904Z,58.39
2023-02-04T09:51:49.801Z,58.33
2023-02-04T09:56:52.447Z,58.61
2023-02-04T10:02:02.673Z,58.99
2023-02-04T10:07:11.928Z,58.73
2023-02-04T10:12:13.358Z,58.40
2023-02-04T10:17:20.292Z,58.31
2023-02-04T10:22:22.365Z,57.74
2023-02-04T10:27:23.701Z,57.29
2023-02-04T10:32:31.457Z,57.26
2023-02-04T10:37:32.964Z,56.59
2023-02-04T10:42:34.351Z,55.85
2023-02-04T10:47:35.895Z,55.23
2023-02-04T10:52:41.086Z,55.46
2023-02-04T10:57:45.614Z,55.22
2023-02-04T11:03:03.618Z,55.01
2023-02-04T11:08:25.307Z,54.60
2023-02-04T11:13:39.285Z,54.27
2023-02-04T11:18:48.815Z,54.28
2023-02-04T11:23:50.532Z,54.13
2023-02-04T11:29:00.762Z,53.85
2023-02-04T11:34:11.373Z,53.24
2023-02-04T11:39:16.925Z,53.51
2023-02-04T11:44:19.049Z,53.47
2023-02-04T11:49:21.099Z,52.71
2023-02-04T11:54:23.510Z,52.63
2023-02-04T11:59:24.930Z,52.21
2023-02-04T12:04:26.312Z,52.63
2023-02-04T12:09:30.099Z,51.77
2023-02-04T12:14:41.696Z,52.16
2023-02-04T12:19:43.140Z,52.19
2023-02-04T12:24:44.973Z,52.03
2023-02-04T12:29:46.473Z,51.58
2023-02-04T12:34:47.797Z,50.96
2023-02-04T12:39:49.130Z,50.59
2023-02-04T12:44:50.453Z,50.88
2023-02-04T12:49:51.787Z,50.33
2023-02-04T12:54:53.171Z,49.75
2023-02-04T12:59:57.694Z,49.57
2023-02-04T13:04:58.992Z,49.37
2023-02-04T13:10:00.940Z,49.21
2023-02-04T13:15:03.133Z,48.93
2023-02-04T13:20:05.688Z,48.92
2023-02-04T13:25:07.352Z,48.62
2023-02-04T13:30:10.847Z,48.36
2023-02-04T13:35:12.191Z,48.30
2023-02-04T13:40:13.690Z,48.41
2023-02-04T13:45:16.186Z,48.38
2023-02-04T13:50:17.773Z,47.82
2023-02-04T13:55:19.114Z,48.24
2023-02-04T14:00:20.615Z,47.66
2023-02-04T14:05:22.033Z,48.29
2023-02-04T14:10:24.914Z,48.43
2023-02-04T14:15:26.318Z,47.98
2023-02-04T14:20:27.643Z,48.40
2023-02-04T14:25:29.007Z,48.26
2023-02-04T14:30:31.773Z,48.49
2023-02-04T14:35:33.454Z,48.39
2023-02-04T14:40:35.072Z,48.32
2023-02-04T14:45:37.827Z,48.54
2023-02-04T14:50:39.186Z,48.50
2023-02-04T14:55:40.528Z,48.00
2023-02-04T15:00:41.854Z,47.77
2023-02-04T15:05:43.231Z,47.87
2023-02-04T15:10:44.636Z,48.13
2023-02-04T15:15:46.133Z,48.20
2023-02-04T15:20:47.855Z,48.50
2023-02-04T15:25:51.472Z,48.44
2023-02-04T15:30:53.374Z,47.99
2023-02-04T15:35:54.753Z,48.40
2023-02-04T15:40:56.081Z,48.70
2023-02-04T15:45:57.943Z,49.04
2023-02-04T15:50:59.322Z,49.66
2023-02-04T15:56:01.083Z,50.82
2023-02-04T16:01:02.505Z,50.69
2023-02-04T16:06:05.114Z,50.94
2023-02-04T16:11:06.463Z,51.12
2023-02-04T16:16:08.188Z,51.21
2023-02-04T16:21:09.566Z,51.44
2023-02-04T16:26:11.016Z,51.82
2023-02-04T16:31:12.794Z,52.22
2023-02-04T16:36:14.253Z,52.35
2023-02-04T16:41:15.615Z,52.75
2023-02-04T16:46:17.887Z,53.09
2023-02-04T16:51:20.344Z,53.21
2023-02-04T16:56:21.763Z,53.53
2023-02-04T17:01:23.147Z,53.86
2023-02-04T17:06:26.762Z,53.79
2023-02-04T17:11:31.511Z,54.09
2023-02-04T17:16:33.184Z,54.10
2023-02-04T17:21:35.044Z,54.46
2023-02-04T17:26:39.306Z,55.40
2023-02-04T17:31:43.107Z,55.04
2023-02-04T17:36:44.478Z,55.00
2023-02-04T17:41:45.875Z,55.12
2023-02-04T17:46:47.244Z,54.96
2023-02-04T17:51:48.638Z,54.87
2023-02-04T17:56:50.170Z,55.13
2023-02-04T18:01:51.643Z,55.06
2023-02-04T18:06:53.259Z,55.04
2023-02-04T18:11:54.579Z,54.50
2023-02-04T18:16:58.560Z,54.27
2023-02-04T18:21:59.956Z,54.38
2023-02-04T18:27:11.441Z,54.09
2023-02-04T18:32:20.862Z,54.65
2023-02-04T18:37:35.514Z,54.24
2023-02-04T18:42:43.086Z,54.93
2023-02-04T18:47:45.730Z,54.30
2023-02-04T18:52:47.040Z,54.12
2023-02-04T18:57:48.410Z,53.67
2023-02-04T19:02:56.241Z,54.37
2023-02-04T19:08:43.788Z,54.15
2023-02-04T19:13:45.239Z,54.69
2023-02-04T19:18:47.223Z,54.63
2023-02-04T19:23:50.168Z,54.55
2023-02-04T19:28:52.278Z,54.66
2023-02-04T19:33:55.280Z,54.79
2023-02-04T19:39:00.563Z,54.74
2023-02-04T19:44:14.178Z,54.49
2023-02-04T19:49:25.772Z,54.88
2023-02-04T19:54:39.483Z,54.39
2023-02-04T19:59:41.037Z,54.57
2023-02-04T20:04:45.485Z,54.84
2023-02-04T20:09:46.970Z,54.72
2023-02-04T20:14:49.927Z,54.41
2023-02-04T20:19:51.477Z,54.43
2023-02-04T20:25:18.852Z,54.87
2023-02-04T20:30:25.417Z,54.71
2023-02-04T20:35:31.827Z,54.40
2023-02-04T20:40:36.199Z,54.07
2023-02-04T20:45:44.350Z,54.57
2023-02-04T20:50:51.915Z,54.11
2023-02-04T20:56:03.613Z,54.13
2023-02-04T21:01:27.664Z,53.99
2023-02-04T21:06:31.890Z,53.99
2023-02-04T21:11:33.370Z,54.19
2023-02-04T21:16:34.828Z,54.04
2023-02-04T21:21:36.290Z,54.74
2023-02-04T21:26:37.723Z,54.52
2023-02-04T21:31:39.489Z,55.22
2023-02-04T21:36:41.004Z,55.17
2023-02-04T21:41:42.350Z,55.18
2023-02-04T21:46:43.699Z,55.46
2023-02-04T21:51:45.046Z,55.54
2023-02-04T21:56:46.348Z,55.88
2023-02-04T22:01:47.701Z,55.70
2023-02-04T22:06:49.059Z,55.84
2023-02-04T22:11:50.394Z,55.67
2023-02-04T22:16:51.732Z,56.29
2023-02-04T22:21:53.031Z,56.09
2023-02-04T22:26:54.356Z,56.08
2023-02-04T22:31:56.217Z,56.43
2023-02-04T22:36:57.720Z,56.43
2023-02-04T22:41:59.042Z,55.80
2023-02-04T22:47:00.388Z,56.48
2023-02-04T22:52:03.090Z,55.96
2023-02-04T22:57:04.457Z,56.15
2023-02-04T23:02:05.834Z,56.22
2023-02-04T23:07:08.355Z,56.26
2023-02-04T23:12:12.787Z,56.59
2023-02-04T23:17:15.833Z,57.21
2023-02-04T23:22:17.283Z,58.12
2023-02-04T23:27:18.772Z,58.03
2023-02-04T23:32:20.129Z,58.03
2023-02-04T23:37:21.553Z,58.33
2023-02-04T23:42:22.903Z,58.47
2023-02-04T23:47:25.281Z,58.53
2023-02-04T23:52:26.628Z,58.81
2023-02-04T23:57:27.954Z,58.80
